createdAt,value
2023-03-16T00:01:48.287Z,10.90
2023-03-16T00:04:19.055Z,10.88
2023-03-16T00:06:51.473Z,11.27
2023-03-16T00:09:22.106Z,11.20
2023-03-16T00:11:55.252Z,9.73
2023-03-16T00:14:26.661Z,11.98
2023-03-16T00:16:57.447Z,11.27
2023-03-16T00:19:29.147Z,12.20
2023-03-16T00:22:00.124Z,11.15
2023-03-16T00:24:30.937Z,12.18
2023-03-16T00:27:02.018Z,13.85
2023-03-16T00:29:35.687Z,9.98
2023-03-16T00:32:06.700Z,9.65
2023-03-16T00:34:37.093Z,10.05
2023-03-16T00:37:07.864Z,14.25
2023-03-16T00:39:38.628Z,9.25
2023-03-16T00:42:10.771Z,8.18
2023-03-16T00:44:42.715Z,7.95
2023-03-16T00:47:15.449Z,8.55
2023-03-16T00:49:46.526Z,10.68
2023-03-16T00:52:20.002Z,10.82
2023-03-16T00:54:51.137Z,10.68
2023-03-16T00:57:25.815Z,10.48
2023-03-16T00:59:56.233Z,11.60
2023-03-16T01:02:26.511Z,16.95
2023-03-16T01:04:57.196Z,16.75
2023-03-16T01:07:32.148Z,15.77
2023-03-16T01:10:03.055Z,18.27
2023-03-16T01:12:34.890Z,17.13
2023-03-16T01:15:06.271Z,15.00
2023-03-16T01:17:37.788Z,12.70
2023-03-16T01:20:13.232Z,14.45
2023-03-16T01:22:43.954Z,11.65
2023-03-16T01:25:15.727Z,10.13
2023-03-16T01:27:46.596Z,9.60
2023-03-16T01:30:17.443Z,10.50
2023-03-16T01:32:48.180Z,12.60
2023-03-16T01:35:22.439Z,9.50
2023-03-16T01:37:55.298Z,10.85
2023-03-16T01:40:29.428Z,11.13
2023-03-16T01:43:03.775Z,11.48
2023-03-16T01:46:08.425Z,11.45
2023-03-16T01:49:21.686Z,11.18
2023-03-16T01:52:04.995Z,9.93
2023-03-16T01:54:46.585Z,12.27
2023-03-16T01:57:26.632Z,12.48
2023-03-16T02:00:21.605Z,13.73
2023-03-16T02:03:14.925Z,14.35
2023-03-16T02:06:07.998Z,15.07
2023-03-16T02:08:40.892Z,15.73
2023-03-16T02:11:12.568Z,16.88
2023-03-16T02:13:50.078Z,17.38
2023-03-16T02:16:23.505Z,18.08
2023-03-16T02:18:54.479Z,17.83
2023-03-16T02:21:36.433Z,17.65
2023-03-16T02:24:07.956Z,17.65
2023-03-16T02:26:48.435Z,18.10
2023-03-16T02:29:47.174Z,22.15
2023-03-16T02:32:19.470Z,19.17
2023-03-16T02:34:50.499Z,19.63
2023-03-16T02:37:22.796Z,17.02
2023-03-16T02:39:54.701Z,16.38
2023-03-16T02:42:27.465Z,14.88
2023-03-16T02:45:01.974Z,14.80
2023-03-16T02:47:45.286Z,13.05
2023-03-16T02:50:16.032Z,13.93
2023-03-16T02:52:48.969Z,18.38
2023-03-16T02:55:20.289Z,12.50
2023-03-16T02:57:53.390Z,8.82
2023-03-16T03:00:24.215Z,9.60
2023-03-16T03:02:55.091Z,7.10
2023-03-16T03:05:26.580Z,5.93
2023-03-16T03:07:57.844Z,5.55
2023-03-16T03:10:30.658Z,3.88
2023-03-16T03:13:03.164Z,4.50
2023-03-16T03:15:36.074Z,5.57
2023-03-16T03:18:13.405Z,4.68
2023-03-16T03:20:44.383Z,3.95
2023-03-16T03:23:16.417Z,3.40
2023-03-16T03:25:48.886Z,3.50
2023-03-16T03:28:20.945Z,5.90
2023-03-16T03:30:52.479Z,4.03
2023-03-16T03:33:26.205Z,4.35
2023-03-16T03:36:01.133Z,6.65
2023-03-16T03:38:37.309Z,5.93
2023-03-16T03:41:09.823Z,5.18
2023-03-16T03:43:42.582Z,4.28
2023-03-16T03:46:21.303Z,4.95
2023-03-16T03:48:52.016Z,5.57
2023-03-16T03:51:23.023Z,7.35
2023-03-16T03:54:16.341Z,8.05
2023-03-16T03:57:13.785Z,4.18
2023-03-16T03:59:45.036Z,5.25
2023-03-16T04:02:34.190Z,3.80
2023-03-16T04:05:07.321Z,4.25
2023-03-16T04:07:38.260Z,10.75
2023-03-16T04:10:13.134Z,3.65
2023-03-16T04:12:45.858Z,3.55
2023-03-16T04:15:17.301Z,3.20
2023-03-16T04:18:05.532Z,3.92
2023-03-16T04:20:36.124Z,2.83
2023-03-16T04:23:07.784Z,3.30
2023-03-16T04:25:40.239Z,3.50
2023-03-16T04:28:14.722Z,4.28
2023-03-16T04:30:45.882Z,3.20
2023-03-16T04:33:27.428Z,5.15
2023-03-16T04:35:58.854Z,3.47
2023-03-16T04:38:31.355Z,3.25
2023-03-16T04:41:08.382Z,3.92
2023-03-16T04:43:44.240Z,3.17
2023-03-16T04:46:24.686Z,2.50
2023-03-16T04:49:02.246Z,3.53
2023-03-16T04:51:33.906Z,5.25
2023-03-16T04:54:13.169Z,2.40
2023-03-16T04:56:46.977Z,2.70
2023-03-16T04:59:42.642Z,3.45
2023-03-16T05:02:35.592Z,4.03
2023-03-16T05:05:07.741Z,3.58
2023-03-16T05:07:40.265Z,3.60
2023-03-16T05:10:13.168Z,3.05
2023-03-16T05:12:44.552Z,2.95
2023-03-16T05:15:15.280Z,5.15
2023-03-16T05:17:48.193Z,4.45
2023-03-16T05:20:19.774Z,4.47
2023-03-16T05:22:54.476Z,5.20
2023-03-16T05:25:32.406Z,5.15
2023-03-16T05:28:07.164Z,4.53
2023-03-16T05:30:46.352Z,5.15
2023-03-16T05:33:24.077Z,4.97
2023-03-16T05:36:01.090Z,5.25
2023-03-16T05:38:34.491Z,5.40
2023-03-16T05:41:06.097Z,5.25
2023-03-16T05:43:55.299Z,5.28
2023-03-16T05:46:29.244Z,5.88
2023-03-16T05:49:01.152Z,5.50
2023-03-16T05:51:33.345Z,5.40
2023-03-16T05:54:06.633Z,5.93
2023-03-16T05:56:47.083Z,5.82
2023-03-16T05:59:19.475Z,5.63
2023-03-16T06:01:55.589Z,5.43
2023-03-16T06:04:26.339Z,5.65
2023-03-16T06:06:59.164Z,7.90
2023-03-16T06:09:33.835Z,7.20
2023-03-16T06:12:10.564Z,6.45
2023-03-16T06:14:42.410Z,6.63
2023-03-16T06:17:13.342Z,7.18
2023-03-16T06:19:45.413Z,6.78
2023-03-16T06:22:16.839Z,6.53
2023-03-16T06:24:47.532Z,6.50
2023-03-16T06:27:22.864Z,6.35
2023-03-16T06:30:10.904Z,5.78
2023-03-16T06:32:46.391Z,5.75
2023-03-16T06:35:17.510Z,5.32
2023-03-16T06:37:57.369Z,5.63
2023-03-16T06:41:06.711Z,6.47
2023-03-16T06:43:38.776Z,6.10
2023-03-16T06:46:10.769Z,5.90
2023-03-16T06:48:42.842Z,7.22
2023-03-16T06:51:16.931Z,5.82
2023-03-16T06:53:48.949Z,6.55
2023-03-16T06:56:20.501Z,6.30
2023-03-16T06:58:53.747Z,6.38
2023-03-16T07:01:24.730Z,5.30
2023-03-16T07:03:56.499Z,6.18
2023-03-16T07:06:30.876Z,6.57
2023-03-16T07:09:04.673Z,5.53
2023-03-16T07:11:35.554Z,4.80
2023-03-16T07:14:08.109Z,4.35
2023-03-16T07:16:40.815Z,5.28
2023-03-16T07:19:12.958Z,4.05
2023-03-16T07:21:43.886Z,4.07
2023-03-16T07:24:19.097Z,4.15
2023-03-16T07:26:50.383Z,3.60
2023-03-16T07:29:29.093Z,4.25
2023-03-16T07:32:00.405Z,4.28
2023-03-16T07:34:38.190Z,3.85
2023-03-16T07:37:10.934Z,3.00
2023-03-16T07:39:42.957Z,4.85
2023-03-16T07:42:23.241Z,3.80
2023-03-16T07:45:07.981Z,3.40
2023-03-16T07:47:38.911Z,3.08
2023-03-16T07:50:23.255Z,4.07
2023-03-16T07:52:56.839Z,3.40
2023-03-16T07:55:28.289Z,3.30
2023-03-16T07:57:59.176Z,4.18
2023-03-16T08:00:35.912Z,3.65
2023-03-16T08:03:07.284Z,3.13
2023-03-16T08:05:37.964Z,3.30
2023-03-16T08:08:17.148Z,4.10
2023-03-16T08:10:49.972Z,3.95
2023-03-16T08:13:23.407Z,6.40
2023-03-16T08:15:59.419Z,3.83
2023-03-16T08:18:37.784Z,3.00
2023-03-16T08:21:09.755Z,2.72
2023-03-16T08:23:40.700Z,2.90
2023-03-16T08:26:14.345Z,3.28
2023-03-16T08:28:48.680Z,3.60
2023-03-16T08:31:21.057Z,3.30
2023-03-16T08:34:07.462Z,5.28
2023-03-16T08:36:47.263Z,2.95
2023-03-16T08:39:18.637Z,3.63
2023-03-16T08:41:50.794Z,3.75
2023-03-16T08:44:31.542Z,3.53
2023-03-16T08:47:02.600Z,3.13
2023-03-16T08:49:34.627Z,3.53
2023-03-16T08:52:13.894Z,3.90
2023-03-16T08:54:59.772Z,3.83
2023-03-16T08:57:35.659Z,3.45
2023-03-16T09:00:13.855Z,3.55
2023-03-16T09:02:45.195Z,3.35
2023-03-16T09:05:17.068Z,4.40
2023-03-16T09:07:49.017Z,3.90
2023-03-16T09:10:19.896Z,3.83
2023-03-16T09:12:53.089Z,3.95
2023-03-16T09:15:24.624Z,3.92
2023-03-16T09:17:58.320Z,3.50
2023-03-16T09:20:33.089Z,4.20
2023-03-16T09:23:04.682Z,3.78
2023-03-16T09:25:38.372Z,5.35
2023-03-16T09:28:09.668Z,4.00
2023-03-16T09:30:53.361Z,3.88
2023-03-16T09:33:26.378Z,3.75
2023-03-16T09:35:58.709Z,4.20
2023-03-16T09:38:30.278Z,3.92
2023-03-16T09:41:27.391Z,4.57
2023-03-16T09:44:16.751Z,3.85
2023-03-16T09:46:48.933Z,4.05
2023-03-16T09:49:23.561Z,4.53
2023-03-16T09:52:07.334Z,4.28
2023-03-16T09:54:48.331Z,4.75
2023-03-16T09:57:28.866Z,3.80
2023-03-16T10:00:12.146Z,5.03
2023-03-16T10:03:02.531Z,4.57
2023-03-16T10:05:36.736Z,4.95
2023-03-16T10:08:26.195Z,5.45
2023-03-16T10:11:31.542Z,4.00
2023-03-16T10:14:18.497Z,6.45
2023-03-16T10:16:56.103Z,6.25
2023-03-16T10:19:29.757Z,5.65
2023-03-16T10:22:04.960Z,5.40
2023-03-16T10:24:45.017Z,5.68
2023-03-16T10:27:24.050Z,7.30
2023-03-16T10:29:59.110Z,9.65
2023-03-16T10:32:35.405Z,6.70
2023-03-16T10:35:43.637Z,7.18
2023-03-16T10:39:03.354Z,8.25
2023-03-16T10:41:37.620Z,8.98
2023-03-16T10:44:26.675Z,18.38
2023-03-16T10:47:09.568Z,9.05
2023-03-16T10:49:49.880Z,7.57
2023-03-16T10:52:26.199Z,8.10
2023-03-16T10:55:00.980Z,7.07
2023-03-16T10:57:35.522Z,8.00
2023-03-16T11:00:21.862Z,6.95
2023-03-16T11:02:57.736Z,5.40
2023-03-16T11:05:31.993Z,5.95
2023-03-16T11:08:12.275Z,6.75
2023-03-16T11:10:56.382Z,6.93
2023-03-16T11:13:35.496Z,7.10
2023-03-16T11:16:33.313Z,6.80
2023-03-16T11:19:22.450Z,6.95
2023-03-16T11:21:58.787Z,9.15
2023-03-16T11:24:35.736Z,8.63
2023-03-16T11:27:10.151Z,10.48
2023-03-16T11:29:49.102Z,32.90
2023-03-16T11:32:28.563Z,33.13
2023-03-16T11:34:59.686Z,19.20
2023-03-16T11:37:52.771Z,25.65
2023-03-16T11:40:53.666Z,26.40
2023-03-16T11:43:34.359Z,16.85
2023-03-16T11:46:12.555Z,16.45
2023-03-16T11:48:52.187Z,11.93
2023-03-16T11:51:53.913Z,11.13
2023-03-16T11:54:43.828Z,9.80
2023-03-16T11:57:44.708Z,9.63
2023-03-16T12:00:40.443Z,12.40
2023-03-16T12:03:18.577Z,10.55
2023-03-16T12:06:13.572Z,9.25
2023-03-16T12:09:26.238Z,6.80
2023-03-16T12:12:05.076Z,7.13
2023-03-16T12:14:47.641Z,7.07
2023-03-16T12:17:26.450Z,7.35
2023-03-16T12:20:13.985Z,7.40
2023-03-16T12:23:10.184Z,6.05
2023-03-16T12:25:45.484Z,7.22
2023-03-16T12:28:28.988Z,6.50
2023-03-16T12:31:11.158Z,7.15
2023-03-16T12:34:14.380Z,7.25
2023-03-16T12:36:57.843Z,7.90
2023-03-16T12:39:37.023Z,7.85
2023-03-16T12:42:42.812Z,7.80
2023-03-16T12:45:29.395Z,7.47
2023-03-16T12:48:30.952Z,7.93
2023-03-16T12:51:04.441Z,7.13
2023-03-16T12:53:55.769Z,7.78
2023-03-16T12:56:38.526Z,7.65
2023-03-16T12:59:11.200Z,8.10
2023-03-16T13:01:45.815Z,8.70
2023-03-16T13:04:22.056Z,11.23
2023-03-16T13:07:25.543Z,7.70
2023-03-16T13:10:13.557Z,7.80
2023-03-16T13:12:46.659Z,7.82
2023-03-16T13:15:24.536Z,7.38
2023-03-16T13:18:18.779Z,8.07
2023-03-16T13:20:57.569Z,8.57
2023-03-16T13:24:05.041Z,7.45
2023-03-16T13:26:44.274Z,6.38
2023-03-16T13:29:29.019Z,5.80
2023-03-16T13:32:10.462Z,5.18
2023-03-16T13:34:50.328Z,5.40
2023-03-16T13:37:22.653Z,5.30
2023-03-16T13:39:59.534Z,5.47
2023-03-16T13:42:34.645Z,8.13
2023-03-16T13:45:15.264Z,8.70
2023-03-16T13:47:46.986Z,7.10
2023-03-16T13:50:18.716Z,7.65
2023-03-16T13:52:59.341Z,7.18
2023-03-16T13:55:37.673Z,7.63
2023-03-16T13:58:15.580Z,6.82
2023-03-16T14:00:50.450Z,6.95
2023-03-16T14:03:23.321Z,7.22
2023-03-16T14:05:56.857Z,7.05
2023-03-16T14:08:27.906Z,7.88
2023-03-16T14:11:01.248Z,6.90
2023-03-16T14:13:37.106Z,7.75
2023-03-16T14:16:15.572Z,6.63
2023-03-16T14:19:09.497Z,8.00
2023-03-16T14:21:46.657Z,7.32
2023-03-16T14:24:40.966Z,7.25
2023-03-16T14:27:23.379Z,7.07
2023-03-16T14:30:16.674Z,6.90
2023-03-16T14:33:05.076Z,6.28
2023-03-16T14:35:46.675Z,6.38
2023-03-16T14:38:30.277Z,6.30
2023-03-16T14:41:25.554Z,5.32
2023-03-16T14:43:59.011Z,5.78
2023-03-16T14:46:32.486Z,6.75
2023-03-16T14:49:16.181Z,5.55
2023-03-16T14:51:47.828Z,6.53
2023-03-16T14:54:19.944Z,5.95
2023-03-16T14:56:53.401Z,5.80
2023-03-16T14:59:24.406Z,5.43
2023-03-16T15:01:56.183Z,5.82
2023-03-16T15:04:32.694Z,6.30
2023-03-16T15:07:05.249Z,5.97
2023-03-16T15:09:41.637Z,6.32
2023-03-16T15:12:25.952Z,6.95
2023-03-16T15:15:14.877Z,6.72
2023-03-16T15:17:49.872Z,6.75
2023-03-16T15:20:34.372Z,6.15
2023-03-16T15:23:06.153Z,7.00
2023-03-16T15:25:39.756Z,7.03
2023-03-16T15:28:18.774Z,6.50
2023-03-16T15:30:54.724Z,6.35
2023-03-16T15:33:25.978Z,7.38
2023-03-16T15:35:59.030Z,7.32
2023-03-16T15:38:37.177Z,6.30
2023-03-16T15:41:12.366Z,6.28
2023-03-16T15:43:43.489Z,5.85
2023-03-16T15:46:15.763Z,6.07
2023-03-16T15:48:46.211Z,6.32
2023-03-16T15:51:17.192Z,6.65
2023-03-16T15:53:51.457Z,6.50
2023-03-16T15:56:30.849Z,6.07
2023-03-16T15:59:03.904Z,7.35
2023-03-16T16:01:45.963Z,6.63
2023-03-16T16:04:21.279Z,6.90
2023-03-16T16:06:56.074Z,6.88
2023-03-16T16:09:26.841Z,6.72
2023-03-16T16:11:57.654Z,6.28
2023-03-16T16:14:28.937Z,5.93
2023-03-16T16:16:59.570Z,6.00
2023-03-16T16:19:31.400Z,6.30
2023-03-16T16:22:02.045Z,5.65
2023-03-16T16:24:32.469Z,5.38
2023-03-16T16:27:03.473Z,5.40
2023-03-16T16:29:36.073Z,5.70
2023-03-16T16:32:22.099Z,5.50
2023-03-16T16:35:04.306Z,5.40
2023-03-16T16:37:35.980Z,4.90
2023-03-16T16:40:07.061Z,5.60
2023-03-16T16:42:38.732Z,4.70
2023-03-16T16:45:22.777Z,5.28
2023-03-16T16:47:56.624Z,4.82
2023-03-16T16:50:29.067Z,5.93
2023-03-16T16:52:59.913Z,5.65
2023-03-16T16:55:33.494Z,6.22
2023-03-16T16:58:23.921Z,5.88
2023-03-16T17:00:59.794Z,5.57
2023-03-16T17:03:31.500Z,6.10
2023-03-16T17:06:02.132Z,5.47
2023-03-16T17:08:33.306Z,5.25
2023-03-16T17:11:04.421Z,4.85
2023-03-16T17:13:42.226Z,4.80
2023-03-16T17:16:18.923Z,5.40
2023-03-16T17:18:50.367Z,5.28
2023-03-16T17:21:26.258Z,4.60
2023-03-16T17:23:57.883Z,4.53
2023-03-16T17:26:34.270Z,5.63
2023-03-16T17:29:27.090Z,5.38
2023-03-16T17:31:57.577Z,5.85
2023-03-16T17:34:29.863Z,6.28
2023-03-16T17:37:00.580Z,5.28
2023-03-16T17:39:35.015Z,6.18
2023-03-16T17:42:13.559Z,6.65
2023-03-16T17:44:46.934Z,10.57
2023-03-16T17:47:29.369Z,10.68
2023-03-16T17:49:59.712Z,12.88
2023-03-16T17:52:32.388Z,11.73
2023-03-16T17:55:03.664Z,15.10
2023-03-16T17:57:35.344Z,15.77
2023-03-16T18:00:24.464Z,16.48
2023-03-16T18:02:55.845Z,16.15
2023-03-16T18:05:40.330Z,17.15
2023-03-16T18:08:26.822Z,16.00
2023-03-16T18:11:02.556Z,14.32
2023-03-16T18:13:36.034Z,12.52
2023-03-16T18:16:08.263Z,13.43
2023-03-16T18:18:40.619Z,12.93
2023-03-16T18:21:22.737Z,12.90
2023-03-16T18:23:54.265Z,13.15
2023-03-16T18:26:25.653Z,12.30
2023-03-16T18:28:56.447Z,12.57
2023-03-16T18:31:29.199Z,12.45
2023-03-16T18:34:01.790Z,13.02
2023-03-16T18:36:39.049Z,12.25
2023-03-16T18:39:18.822Z,12.85
2023-03-16T18:41:49.429Z,12.45
2023-03-16T18:44:26.701Z,13.15
2023-03-16T18:47:04.836Z,12.70
2023-03-16T18:49:37.118Z,12.70
2023-03-16T18:52:16.552Z,13.23
2023-03-16T18:54:48.080Z,13.18
2023-03-16T18:57:24.706Z,12.82
2023-03-16T18:59:58.758Z,13.20
2023-03-16T19:02:32.450Z,12.98
2023-03-16T19:05:05.288Z,13.07
2023-03-16T19:07:43.283Z,13.35
2023-03-16T19:10:32.950Z,13.30
2023-03-16T19:13:05.852Z,13.20
2023-03-16T19:15:36.514Z,13.57
2023-03-16T19:18:10.108Z,14.93
2023-03-16T19:20:45.540Z,13.88
2023-03-16T19:23:32.553Z,13.68
2023-03-16T19:26:03.935Z,12.82
2023-03-16T19:28:40.277Z,12.90
2023-03-16T19:31:21.435Z,13.38
2023-03-16T19:33:53.051Z,12.98
2023-03-16T19:36:27.209Z,12.43
2023-03-16T19:38:58.644Z,12.52
2023-03-16T19:41:34.905Z,13.43
2023-03-16T19:44:26.286Z,12.98
2023-03-16T19:46:57.103Z,13.73
2023-03-16T19:49:28.473Z,15.95
2023-03-16T19:51:59.124Z,15.60
2023-03-16T19:54:34.893Z,15.20
2023-03-16T19:57:13.447Z,15.15
2023-03-16T19:59:46.495Z,15.00
2023-03-16T20:02:30.112Z,16.23
2023-03-16T20:05:00.758Z,16.65
2023-03-16T20:07:40.058Z,15.95
2023-03-16T20:10:17.444Z,15.80
2023-03-16T20:12:50.855Z,15.25
2023-03-16T20:15:23.485Z,14.65
2023-03-16T20:17:53.973Z,15.20
2023-03-16T20:20:27.688Z,14.18
2023-03-16T20:23:00.631Z,13.27
2023-03-16T20:25:33.172Z,14.40
2023-03-16T20:28:04.818Z,13.75
2023-03-16T20:30:35.434Z,12.65
2023-03-16T20:33:05.999Z,11.93
2023-03-16T20:35:40.187Z,12.48
2023-03-16T20:38:17.422Z,12.13
2023-03-16T20:40:50.096Z,14.13
2023-03-16T20:43:35.088Z,14.80
2023-03-16T20:46:06.913Z,19.48
2023-03-16T20:48:37.639Z,19.80
2023-03-16T20:51:15.148Z,17.90
2023-03-16T20:53:47.477Z,15.02
2023-03-16T20:56:23.802Z,15.07
2023-03-16T20:58:56.960Z,13.93
2023-03-16T21:01:28.570Z,14.63
2023-03-16T21:04:02.706Z,14.02
2023-03-16T21:06:37.209Z,14.57
2023-03-16T21:09:07.315Z,12.48
2023-03-16T21:11:40.248Z,13.32
2023-03-16T21:14:20.052Z,12.43
2023-03-16T21:16:51.031Z,12.40
2023-03-16T21:19:25.720Z,12.30
2023-03-16T21:21:56.377Z,13.18
2023-03-16T21:24:28.180Z,12.10
2023-03-16T21:26:58.337Z,13.50
2023-03-16T21:29:29.568Z,13.35
2023-03-16T21:32:00.260Z,13.52
2023-03-16T21:34:32.671Z,15.32
2023-03-16T21:37:03.679Z,15.43
2023-03-16T21:39:35.066Z,15.48
2023-03-16T21:42:06.288Z,14.50
2023-03-16T21:44:36.995Z,14.50
2023-03-16T21:47:28.620Z,14.93
2023-03-16T21:50:00.202Z,14.63
2023-03-16T21:52:31.274Z,14.43
2023-03-16T21:55:01.670Z,14.98
2023-03-16T21:57:33.246Z,15.43
2023-03-16T22:00:03.912Z,15.05
2023-03-16T22:02:38.000Z,16.23
2023-03-16T22:05:26.602Z,15.82
2023-03-16T22:07:59.680Z,16.10
2023-03-16T22:10:33.340Z,20.10
2023-03-16T22:13:04.169Z,17.50
2023-03-16T22:15:34.390Z,17.17
2023-03-16T22:18:14.806Z,16.85
2023-03-16T22:20:45.777Z,17.10
2023-03-16T22:23:38.083Z,18.77
2023-03-16T22:26:11.883Z,18.58
2023-03-16T22:28:42.206Z,18.98
2023-03-16T22:31:18.871Z,19.92
2023-03-16T22:33:49.939Z,20.48
2023-03-16T22:36:22.728Z,21.40
2023-03-16T22:39:05.131Z,23.67
2023-03-16T22:41:37.391Z,23.08
2023-03-16T22:44:15.152Z,25.50
2023-03-16T22:46:46.099Z,24.63
2023-03-16T22:49:27.986Z,24.95
2023-03-16T22:51:59.503Z,24.58
2023-03-16T22:54:30.826Z,24.92
2023-03-16T22:57:00.988Z,25.40
2023-03-16T22:59:33.285Z,27.92
2023-03-16T23:02:04.097Z,25.35
2023-03-16T23:04:34.911Z,25.40
2023-03-16T23:07:07.878Z,22.90
2023-03-16T23:09:38.136Z,20.88
2023-03-16T23:12:17.474Z,19.42
2023-03-16T23:14:47.847Z,19.25
2023-03-16T23:17:21.885Z,19.67
2023-03-16T23:19:52.889Z,20.65
2023-03-16T23:22:23.471Z,20.30
2023-03-16T23:24:54.007Z,21.08
2023-03-16T23:27:24.932Z,17.45
2023-03-16T23:29:55.267Z,17.08
2023-03-16T23:32:25.620Z,14.20
2023-03-16T23:34:56.139Z,16.67
2023-03-16T23:37:26.797Z,18.08
2023-03-16T23:40:00.562Z,18.98
2023-03-16T23:42:31.206Z,18.80
2023-03-16T23:45:03.099Z,17.50
2023-03-16T23:47:34.044Z,17.98
2023-03-16T23:50:09.354Z,17.80
2023-03-16T23:52:39.989Z,18.52
2023-03-16T23:55:15.394Z,17.23
2023-03-16T23:57:46.764Z,17.23
